Terminal Aerodrome Forecast
Issued by NWS Mt. Holly, NJ

Home | Current Version | Previous Version | Text Only | Print | Product List | Glossary On
Versions: 1 2 3 4 5 6 7 8 9 10 11 12 13 14 15 16 17 18 19
101
FTUS41 KPHI 100113 AAA
TAFILG
TAF AMD
KILG 100113Z 1001/1024 01004KT 6SM -SN SCT005 OVC015
      TEMPO 1001/1003 1SM -SN OVC005
     FM100300 32004KT 5SM -SN OVC008
     FM100500 29008KT P6SM VCSH OVC010
     FM100900 28010KT P6SM OVC025
     FM101100 29012KT P6SM SCT020 BKN050
     FM101400 29014G24KT P6SM BKN050=

USA.gov is the U.S. government's official web portal to all federal, state and local government web resources and services.